createdAt,value
2022-11-12T00:00:34.663Z,6.54
2022-11-12T00:01:36.566Z,6.53
2022-11-12T00:02:38.473Z,6.57
2022-11-12T00:03:40.385Z,6.49
2022-11-12T00:04:42.179Z,6.41
2022-11-12T00:05:47.077Z,6.39
2022-11-12T00:06:48.892Z,6.31
2022-11-12T00:07:50.709Z,6.32
2022-11-12T00:08:52.636Z,6.33
2022-11-12T00:09:54.540Z,6.37
2022-11-12T00:10:56.346Z,6.36
2022-11-12T00:11:58.133Z,6.30
2022-11-12T00:12:59.994Z,6.29
2022-11-12T00:14:01.867Z,6.26
2022-11-12T00:15:04.166Z,6.25
2022-11-12T00:16:06.161Z,6.30
2022-11-12T00:17:07.936Z,6.30
2022-11-12T00:18:09.855Z,6.31
2022-11-12T00:19:11.775Z,6.30
2022-11-12T00:20:13.661Z,6.29
2022-11-12T00:21:15.492Z,6.29
2022-11-12T00:22:17.337Z,6.28
2022-11-12T00:23:19.097Z,6.27
2022-11-12T00:24:20.964Z,6.27
2022-11-12T00:25:22.778Z,6.29
2022-11-12T00:26:24.557Z,6.25
2022-11-12T00:27:26.406Z,6.23
2022-11-12T00:28:31.068Z,6.19
2022-11-12T00:29:35.368Z,6.17
2022-11-12T00:30:40.861Z,6.17
2022-11-12T00:31:42.634Z,6.18
2022-11-12T00:32:44.409Z,6.19
2022-11-12T00:33:46.340Z,6.21
2022-11-12T00:34:48.317Z,6.21
2022-11-12T00:35:50.191Z,6.21
2022-11-12T00:36:52.136Z,6.23
2022-11-12T00:37:55.151Z,6.26
2022-11-12T00:38:56.950Z,6.31
2022-11-12T00:39:58.922Z,6.32
2022-11-12T00:41:00.988Z,6.32
2022-11-12T00:42:02.795Z,6.23
2022-11-12T00:43:04.620Z,6.26
2022-11-12T00:44:06.458Z,6.25
2022-11-12T00:45:08.568Z,6.19
2022-11-12T00:46:10.407Z,6.20
2022-11-12T00:47:12.242Z,6.16
2022-11-12T00:48:14.091Z,6.17
2022-11-12T00:49:16.022Z,6.11
2022-11-12T00:50:17.946Z,6.06
2022-11-12T00:51:19.857Z,6.08
2022-11-12T00:52:21.673Z,6.11
2022-11-12T00:53:23.424Z,6.15
2022-11-12T00:54:25.192Z,6.14
2022-11-12T00:55:27.167Z,6.17
2022-11-12T00:56:34.444Z,6.17
2022-11-12T00:57:37.587Z,6.17
2022-11-12T00:58:39.413Z,6.15
2022-11-12T00:59:41.363Z,6.10
2022-11-12T01:00:43.411Z,6.03
2022-11-12T01:01:45.303Z,5.96
2022-11-12T01:02:50.996Z,5.93
2022-11-12T01:03:53.995Z,5.95
2022-11-12T01:04:55.865Z,5.95
2022-11-12T01:06:02.601Z,5.95
2022-11-12T01:07:04.536Z,5.94
2022-11-12T01:08:06.378Z,5.91
2022-11-12T01:09:09.086Z,5.95
2022-11-12T01:10:11.268Z,5.96
2022-11-12T01:11:14.459Z,5.93
2022-11-12T01:12:16.249Z,5.96
2022-11-12T01:13:18.092Z,5.94
2022-11-12T01:14:19.870Z,5.97
2022-11-12T01:15:21.640Z,5.99
2022-11-12T01:16:24.716Z,6.00
2022-11-12T01:17:26.473Z,5.95
2022-11-12T01:18:28.652Z,5.95
2022-11-12T01:19:30.612Z,5.94
2022-11-12T01:20:32.426Z,5.95
2022-11-12T01:21:37.476Z,5.96
2022-11-12T01:22:39.348Z,5.95
2022-11-12T01:23:41.874Z,5.91
2022-11-12T01:24:43.721Z,5.84
2022-11-12T01:25:45.599Z,5.79
2022-11-12T01:26:48.282Z,5.74
2022-11-12T01:27:50.057Z,5.75
2022-11-12T01:28:51.980Z,5.74
2022-11-12T01:29:53.847Z,5.72
2022-11-12T01:30:55.602Z,5.68
2022-11-12T01:31:57.421Z,5.70
2022-11-12T01:32:59.207Z,5.70
2022-11-12T01:34:02.169Z,5.70
2022-11-12T01:35:04.225Z,5.69
2022-11-12T01:36:06.773Z,5.68
2022-11-12T01:37:08.502Z,5.65
2022-11-12T01:38:10.268Z,5.63
2022-11-12T01:39:12.056Z,5.68
2022-11-12T01:40:13.868Z,5.68
2022-11-12T01:41:17.786Z,5.70
2022-11-12T01:42:19.572Z,5.65
2022-11-12T01:43:21.322Z,5.59
2022-11-12T01:44:25.357Z,5.56
2022-11-12T01:45:27.273Z,5.54
2022-11-12T01:46:30.313Z,5.55
2022-11-12T01:47:34.439Z,5.56
2022-11-12T01:48:39.934Z,5.58
2022-11-12T01:49:41.685Z,5.53
2022-11-12T01:50:43.591Z,5.56
2022-11-12T01:51:48.633Z,5.59
2022-11-12T01:52:53.150Z,5.56
2022-11-12T01:53:58.256Z,5.56
2022-11-12T01:55:03.567Z,5.60
2022-11-12T01:56:05.972Z,5.60
2022-11-12T01:57:09.977Z,5.57
2022-11-12T01:58:16.432Z,5.57
2022-11-12T01:59:22.796Z,5.57
2022-11-12T02:00:24.585Z,5.59
2022-11-12T02:01:26.546Z,5.58
2022-11-12T02:02:29.002Z,5.59
2022-11-12T02:03:30.881Z,5.60
2022-11-12T02:04:33.916Z,5.55
2022-11-12T02:05:37.707Z,5.57
2022-11-12T02:06:41.329Z,5.56
2022-11-12T02:07:44.321Z,5.56
2022-11-12T02:08:46.292Z,5.56
2022-11-12T02:09:48.171Z,5.53
2022-11-12T02:10:50.827Z,5.53
2022-11-12T02:11:52.714Z,5.51
2022-11-12T02:13:13.604Z,5.53
2022-11-12T02:14:15.397Z,5.56
2022-11-12T02:15:17.222Z,5.55
2022-11-12T02:16:19.195Z,5.53
2022-11-12T02:17:21.077Z,5.52
2022-11-12T02:18:23.157Z,5.51
2022-11-12T02:19:26.093Z,5.44
2022-11-12T02:20:27.901Z,5.43
2022-11-12T02:21:30.198Z,5.46
2022-11-12T02:22:31.989Z,5.53
2022-11-12T02:23:33.914Z,5.55
2022-11-12T02:24:37.178Z,5.59
2022-11-12T02:25:39.003Z,5.55
2022-11-12T02:26:43.683Z,5.52
2022-11-12T02:27:45.635Z,5.53
2022-11-12T02:28:47.509Z,5.49
2022-11-12T02:29:49.391Z,5.48
2022-11-12T02:30:51.366Z,5.43
2022-11-12T02:31:53.161Z,5.38
2022-11-12T02:32:54.927Z,5.35
2022-11-12T02:33:56.795Z,5.38
2022-11-12T02:34:58.701Z,5.39
2022-11-12T02:36:00.503Z,5.36
2022-11-12T02:37:02.307Z,5.37
2022-11-12T02:38:04.753Z,5.36
2022-11-12T02:39:06.619Z,5.35
2022-11-12T02:40:09.001Z,5.39
2022-11-12T02:41:10.842Z,5.37
2022-11-12T02:42:12.669Z,5.36
2022-11-12T02:43:14.479Z,5.40
2022-11-12T02:44:16.321Z,5.36
2022-11-12T02:45:19.167Z,5.33
2022-11-12T02:46:20.915Z,5.33
2022-11-12T02:47:22.722Z,5.34
2022-11-12T02:48:24.522Z,5.33
2022-11-12T02:49:26.360Z,5.30
2022-11-12T02:50:28.115Z,5.32
2022-11-12T02:51:30.019Z,5.28
2022-11-12T02:52:32.649Z,5.32
2022-11-12T02:53:34.664Z,5.35
2022-11-12T02:54:36.517Z,5.34
2022-11-12T02:55:38.271Z,5.36
2022-11-12T02:56:40.063Z,5.39
2022-11-12T02:57:41.935Z,5.38
2022-11-12T02:58:43.851Z,5.38
2022-11-12T02:59:45.620Z,5.42
2022-11-12T03:00:47.504Z,5.47
2022-11-12T03:01:49.413Z,5.45
2022-11-12T03:02:59.868Z,5.45
2022-11-12T03:04:01.826Z,5.42
2022-11-12T03:05:03.700Z,5.35
2022-11-12T03:06:05.760Z,5.34
2022-11-12T03:07:07.642Z,5.37
2022-11-12T03:08:10.364Z,5.34
2022-11-12T03:09:13.009Z,5.35
2022-11-12T03:10:14.825Z,5.41
2022-11-12T03:11:17.662Z,5.39
2022-11-12T03:12:19.495Z,5.30
2022-11-12T03:13:21.561Z,5.27
2022-11-12T03:14:23.500Z,5.31
2022-11-12T03:15:25.881Z,5.31
2022-11-12T03:16:27.704Z,5.32
2022-11-12T03:17:29.520Z,5.35
2022-11-12T03:18:31.382Z,5.29
2022-11-12T03:19:33.239Z,5.25
2022-11-12T03:20:37.640Z,5.30
2022-11-12T03:21:39.522Z,5.30
2022-11-12T03:22:41.457Z,5.32
2022-11-12T03:23:43.310Z,5.27
2022-11-12T03:24:45.136Z,5.29
2022-11-12T03:25:47.023Z,5.30
2022-11-12T03:26:48.843Z,5.35
2022-11-12T03:27:56.802Z,5.39
2022-11-12T03:28:58.710Z,5.38
2022-11-12T03:30:00.588Z,5.43
2022-11-12T03:31:02.653Z,5.45
2022-11-12T03:32:04.611Z,5.50
2022-11-12T03:33:07.611Z,5.52
2022-11-12T03:34:09.506Z,5.52
2022-11-12T03:35:11.270Z,5.56
2022-11-12T03:36:13.235Z,5.56
2022-11-12T03:37:15.048Z,5.55
2022-11-12T03:38:16.884Z,5.51
2022-11-12T03:39:18.701Z,5.48
2022-11-12T03:40:20.612Z,5.41
2022-11-12T03:41:22.480Z,5.39
2022-11-12T03:42:24.294Z,5.37
2022-11-12T03:43:26.128Z,5.33
2022-11-12T03:44:28.042Z,5.28
2022-11-12T03:45:29.976Z,5.33
2022-11-12T03:46:32.002Z,5.37
2022-11-12T03:47:33.840Z,5.39
2022-11-12T03:48:35.746Z,5.37
2022-11-12T03:49:37.520Z,5.38
2022-11-12T03:50:39.337Z,5.41
2022-11-12T03:51:41.222Z,5.41
2022-11-12T03:52:46.715Z,5.47
2022-11-12T03:53:48.472Z,5.46
2022-11-12T03:54:50.296Z,5.47
2022-11-12T03:55:52.155Z,5.50
2022-11-12T03:56:53.991Z,5.53
2022-11-12T03:57:56.307Z,5.52
2022-11-12T03:58:58.090Z,5.56
2022-11-12T03:59:59.849Z,5.50
2022-11-12T04:01:01.723Z,5.45
2022-11-12T04:02:03.871Z,5.37
2022-11-12T04:03:05.690Z,5.28
2022-11-12T04:04:07.570Z,5.20
2022-11-12T04:05:28.280Z,5.21
2022-11-12T04:06:48.333Z,5.26
2022-11-12T04:08:09.564Z,5.22
2022-11-12T04:09:11.392Z,5.25
2022-11-12T04:10:13.242Z,5.26
2022-11-12T04:11:16.003Z,5.21
2022-11-12T04:12:36.066Z,5.22
2022-11-12T04:13:38.838Z,5.18
2022-11-12T04:14:40.630Z,5.12
2022-11-12T04:15:42.397Z,5.10
2022-11-12T04:17:02.810Z,5.09
2022-11-12T04:18:23.222Z,5.07
2022-11-12T04:19:43.781Z,5.06
2022-11-12T04:21:03.902Z,5.04
2022-11-12T04:22:09.604Z,5.08
2022-11-12T04:23:11.396Z,5.05
2022-11-12T04:24:33.383Z,5.08
2022-11-12T04:25:53.637Z,5.07
2022-11-12T04:26:55.461Z,5.05
2022-11-12T04:27:57.247Z,5.04
2022-11-12T04:29:17.443Z,5.07
2022-11-12T04:30:19.871Z,5.03
2022-11-12T04:31:21.711Z,5.00
2022-11-12T04:32:23.611Z,5.00
2022-11-12T04:33:25.356Z,4.97
2022-11-12T04:34:30.025Z,4.96
2022-11-12T04:35:31.897Z,4.94
2022-11-12T04:36:33.759Z,4.86
2022-11-12T04:37:45.616Z,4.86
2022-11-12T04:38:47.466Z,4.89
2022-11-12T04:39:49.243Z,4.96
2022-11-12T04:41:09.579Z,5.01
2022-11-12T04:42:29.603Z,4.98
2022-11-12T04:43:49.831Z,4.92
2022-11-12T04:45:01.405Z,4.87
2022-11-12T04:46:04.661Z,4.88
2022-11-12T04:47:06.479Z,4.92
2022-11-12T04:48:08.376Z,4.94
2022-11-12T04:49:10.188Z,4.90
2022-11-12T04:50:16.200Z,4.90
2022-11-12T04:51:36.197Z,4.88
2022-11-12T04:52:38.127Z,4.92
2022-11-12T04:53:39.993Z,4.93
2022-11-12T04:54:41.982Z,4.96
2022-11-12T04:55:43.881Z,4.97
2022-11-12T04:56:45.676Z,4.96
2022-11-12T04:57:47.446Z,4.98
2022-11-12T04:58:49.321Z,5.00
2022-11-12T04:59:51.110Z,5.04
2022-11-12T05:00:53.017Z,5.08
2022-11-12T05:01:54.864Z,5.11
2022-11-12T05:02:56.787Z,5.15
2022-11-12T05:03:58.593Z,5.13
2022-11-12T05:05:00.377Z,5.12
2022-11-12T05:06:02.885Z,5.12
2022-11-12T05:07:05.243Z,5.06
2022-11-12T05:08:07.033Z,4.97
2022-11-12T05:09:08.782Z,4.98
2022-11-12T05:10:10.927Z,5.00
2022-11-12T05:11:13.132Z,5.01
2022-11-12T05:12:14.998Z,5.00
2022-11-12T05:13:16.788Z,4.99
2022-11-12T05:14:19.094Z,4.98
2022-11-12T05:15:20.969Z,5.01
2022-11-12T05:16:22.736Z,5.04
2022-11-12T05:17:24.555Z,5.03
2022-11-12T05:18:26.670Z,5.00
2022-11-12T05:19:28.702Z,5.00
2022-11-12T05:20:30.580Z,4.93
2022-11-12T05:21:50.697Z,4.91
2022-11-12T05:23:05.779Z,4.93
2022-11-12T05:24:08.402Z,4.98
2022-11-12T05:25:10.646Z,4.95
2022-11-12T05:26:12.557Z,4.92
2022-11-12T05:27:15.905Z,4.89
2022-11-12T05:28:17.658Z,4.94
2022-11-12T05:29:19.558Z,4.97
2022-11-12T05:30:21.421Z,4.91
2022-11-12T05:31:23.196Z,4.89
2022-11-12T05:32:25.120Z,4.88
2022-11-12T05:33:26.999Z,4.82
2022-11-12T05:34:28.853Z,4.84
2022-11-12T05:35:30.680Z,4.82
2022-11-12T05:36:32.661Z,4.79
2022-11-12T05:37:34.466Z,4.82
2022-11-12T05:38:38.612Z,4.88
2022-11-12T05:39:40.415Z,4.88
2022-11-12T05:40:45.003Z,4.92
2022-11-12T05:42:11.495Z,4.87
2022-11-12T05:43:08.651Z,4.82
2022-11-12T05:44:10.695Z,4.79
2022-11-12T05:45:13.292Z,4.81
2022-11-12T05:46:15.125Z,4.89
2022-11-12T05:47:17.080Z,4.93
2022-11-12T05:48:23.134Z,4.92
2022-11-12T05:49:26.762Z,4.90
2022-11-12T05:50:34.874Z,4.86
2022-11-12T05:51:41.521Z,4.91
2022-11-12T05:52:43.407Z,4.95
2022-11-12T05:53:45.180Z,4.98
2022-11-12T05:54:46.997Z,5.01
2022-11-12T05:55:48.758Z,5.03
2022-11-12T05:56:51.750Z,4.97
2022-11-12T05:57:53.607Z,4.99
2022-11-12T05:58:55.572Z,4.98
2022-11-12T05:59:57.379Z,4.95
2022-11-12T06:00:59.269Z,4.92
2022-11-12T06:02:01.216Z,4.88
2022-11-12T06:03:03.181Z,4.85
2022-11-12T06:04:05.040Z,4.84
2022-11-12T06:05:07.016Z,4.82
2022-11-12T06:06:09.040Z,4.84
2022-11-12T06:07:10.839Z,4.87
2022-11-12T06:08:12.765Z,4.86
2022-11-12T06:09:14.811Z,4.85
2022-11-12T06:10:20.475Z,4.84
2022-11-12T06:11:22.675Z,4.86
2022-11-12T06:12:24.526Z,4.87
2022-11-12T06:13:26.907Z,4.88
2022-11-12T06:14:28.684Z,4.82
2022-11-12T06:15:32.849Z,4.86
2022-11-12T06:16:37.024Z,4.81
2022-11-12T06:17:38.896Z,4.74
2022-11-12T06:18:40.768Z,4.69
2022-11-12T06:19:42.517Z,4.68
2022-11-12T06:20:44.454Z,4.70
2022-11-12T06:21:46.276Z,4.76
2022-11-12T06:22:48.275Z,4.76
2022-11-12T06:23:55.246Z,4.76
2022-11-12T06:24:57.052Z,4.78
2022-11-12T06:25:59.015Z,4.79
2022-11-12T06:27:00.953Z,4.80
2022-11-12T06:28:02.682Z,4.80
2022-11-12T06:29:04.634Z,4.83
2022-11-12T06:30:07.270Z,4.86
2022-11-12T06:31:09.193Z,4.83
2022-11-12T06:32:11.442Z,4.80
2022-11-12T06:33:13.247Z,4.76
2022-11-12T06:34:15.192Z,4.76
2022-11-12T06:35:18.015Z,4.77
2022-11-12T06:36:21.088Z,4.81
2022-11-12T06:37:22.939Z,4.87
2022-11-12T06:38:24.985Z,4.86
2022-11-12T06:39:27.139Z,4.87
2022-11-12T06:40:28.966Z,4.89
2022-11-12T06:41:30.724Z,4.93
2022-11-12T06:42:32.522Z,4.91
2022-11-12T06:43:34.715Z,4.90
2022-11-12T06:44:36.622Z,4.90
2022-11-12T06:45:38.527Z,4.95
2022-11-12T06:46:40.336Z,4.88
2022-11-12T06:47:42.169Z,4.90
2022-11-12T06:48:43.959Z,4.94
2022-11-12T06:49:45.862Z,4.97
2022-11-12T06:50:47.715Z,4.93
2022-11-12T06:51:52.272Z,4.96
2022-11-12T06:52:58.422Z,4.98
2022-11-12T06:54:00.344Z,5.04
2022-11-12T06:55:02.330Z,5.04
2022-11-12T06:56:05.746Z,5.05
2022-11-12T06:57:07.555Z,5.01
2022-11-12T06:58:09.447Z,5.05
2022-11-12T06:59:11.258Z,5.06
2022-11-12T07:00:13.485Z,5.12
2022-11-12T07:01:16.124Z,5.08
2022-11-12T07:02:18.100Z,5.00
2022-11-12T07:03:19.867Z,4.96
2022-11-12T07:04:21.775Z,5.00
2022-11-12T07:05:23.631Z,5.01
2022-11-12T07:06:25.519Z,4.99
2022-11-12T07:07:28.986Z,4.99
2022-11-12T07:08:30.821Z,4.99
2022-11-12T07:09:32.591Z,5.06
2022-11-12T07:10:35.691Z,5.08
2022-11-12T07:11:37.769Z,5.10
2022-11-12T07:12:39.616Z,5.08
2022-11-12T07:13:41.907Z,5.07
2022-11-12T07:14:43.801Z,5.08
2022-11-12T07:15:45.672Z,5.06
2022-11-12T07:16:47.534Z,5.05
2022-11-12T07:17:49.486Z,5.07
2022-11-12T07:18:51.273Z,5.08
2022-11-12T07:19:53.077Z,5.11
2022-11-12T07:21:02.190Z,5.11
2022-11-12T07:22:04.075Z,5.09
2022-11-12T07:23:05.873Z,5.12
2022-11-12T07:24:08.415Z,5.13
2022-11-12T07:25:10.304Z,5.10
2022-11-12T07:26:18.077Z,5.13
2022-11-12T07:27:19.987Z,5.17
2022-11-12T07:28:21.809Z,5.18
2022-11-12T07:29:35.950Z,5.18
2022-11-12T07:30:45.433Z,5.20
2022-11-12T07:31:47.260Z,5.24
2022-11-12T07:32:52.000Z,5.22
2022-11-12T07:33:54.156Z,5.17
2022-11-12T07:34:55.984Z,5.15
2022-11-12T07:35:59.349Z,5.16
2022-11-12T07:37:01.303Z,5.16
2022-11-12T07:38:03.179Z,5.21
2022-11-12T07:39:04.976Z,5.24
2022-11-12T07:40:07.017Z,5.27
2022-11-12T07:41:29.112Z,5.28
2022-11-12T07:42:34.738Z,5.29
2022-11-12T07:43:37.318Z,5.35
2022-11-12T07:44:39.133Z,5.37
2022-11-12T07:45:40.946Z,5.39
2022-11-12T07:46:42.790Z,5.39
2022-11-12T07:47:46.727Z,5.38
2022-11-12T07:48:48.919Z,5.33
2022-11-12T07:49:50.768Z,5.37
2022-11-12T07:50:52.626Z,5.41
2022-11-12T07:51:54.436Z,5.46
2022-11-12T07:52:58.417Z,5.51
2022-11-12T07:54:00.298Z,5.58
2022-11-12T07:55:02.325Z,5.60
2022-11-12T07:56:05.165Z,5.65
2022-11-12T07:57:06.944Z,5.61
2022-11-12T07:58:08.780Z,5.59
2022-11-12T07:59:10.631Z,5.60
2022-11-12T08:00:12.705Z,5.62
2022-11-12T08:01:20.784Z,5.61
2022-11-12T08:02:22.692Z,5.65
2022-11-12T08:03:24.615Z,5.65
2022-11-12T08:04:26.493Z,5.64
2022-11-12T08:05:28.301Z,5.63
2022-11-12T08:06:30.654Z,5.60
2022-11-12T08:07:32.540Z,5.56
2022-11-12T08:08:34.542Z,5.56
2022-11-12T08:09:36.442Z,5.62
2022-11-12T08:10:38.732Z,5.67
2022-11-12T08:11:42.341Z,5.72
2022-11-12T08:12:44.178Z,5.72
2022-11-12T08:13:46.020Z,5.72
2022-11-12T08:14:47.836Z,5.68
2022-11-12T08:15:52.190Z,5.70
2022-11-12T08:16:54.366Z,5.71
2022-11-12T08:17:56.207Z,5.73
2022-11-12T08:18:58.099Z,5.76
2022-11-12T08:19:59.982Z,5.75
2022-11-12T08:21:05.707Z,5.76
2022-11-12T08:22:07.535Z,5.80
2022-11-12T08:23:10.096Z,5.80
2022-11-12T08:24:12.003Z,5.85
2022-11-12T08:25:13.767Z,5.88
2022-11-12T08:26:17.434Z,5.92
2022-11-12T08:27:19.212Z,5.94
2022-11-12T08:28:21.057Z,6.00
2022-11-12T08:29:25.658Z,6.02
2022-11-12T08:30:27.777Z,6.06
2022-11-12T08:31:29.636Z,6.10
2022-11-12T08:32:31.818Z,6.12
2022-11-12T08:33:34.101Z,6.10
2022-11-12T08:34:36.463Z,6.14
2022-11-12T08:35:38.314Z,6.16
2022-11-12T08:36:40.853Z,6.17
2022-11-12T08:37:42.651Z,6.18
2022-11-12T08:38:45.302Z,6.14
2022-11-12T08:39:47.227Z,6.15
2022-11-12T08:40:48.985Z,6.16
2022-11-12T08:41:50.769Z,6.14
2022-11-12T08:43:00.124Z,6.02
2022-11-12T08:44:08.163Z,5.98
2022-11-12T08:45:10.744Z,6.00
2022-11-12T08:46:12.608Z,6.02
2022-11-12T08:47:14.523Z,6.04
2022-11-12T08:48:16.369Z,6.08
2022-11-12T08:49:18.282Z,6.13
2022-11-12T08:50:20.092Z,6.12
2022-11-12T08:51:22.037Z,6.17
2022-11-12T08:52:23.843Z,6.23
2022-11-12T08:53:25.880Z,6.27
2022-11-12T08:54:27.711Z,6.27
2022-11-12T08:55:29.806Z,6.25
2022-11-12T08:56:31.725Z,6.29
2022-11-12T08:57:39.082Z,6.31
2022-11-12T08:58:40.897Z,6.31
2022-11-12T08:59:42.784Z,6.28
2022-11-12T09:00:44.884Z,6.31
2022-11-12T09:01:46.753Z,6.35
2022-11-12T09:02:48.627Z,6.34
2022-11-12T09:03:50.477Z,6.39
2022-11-12T09:04:52.429Z,6.43
2022-11-12T09:05:54.475Z,6.49
2022-11-12T09:06:56.326Z,6.48
2022-11-12T09:07:58.777Z,6.53
2022-11-12T09:09:00.650Z,6.56
2022-11-12T09:10:02.565Z,6.60
2022-11-12T09:11:04.459Z,6.57
2022-11-12T09:12:14.994Z,6.59
2022-11-12T09:13:20.335Z,6.65
2022-11-12T09:14:22.189Z,6.71
2022-11-12T09:15:40.194Z,6.76
2022-11-12T09:16:42.142Z,6.84
2022-11-12T09:17:44.039Z,6.87
2022-11-12T09:18:45.925Z,6.90
2022-11-12T09:19:47.689Z,6.89
2022-11-12T09:20:49.652Z,6.89
2022-11-12T09:21:51.458Z,6.92
2022-11-12T09:22:53.205Z,6.93
2022-11-12T09:23:55.863Z,6.93
2022-11-12T09:24:57.651Z,6.93
2022-11-12T09:25:59.565Z,6.94
2022-11-12T09:27:01.298Z,7.00
2022-11-12T09:28:07.027Z,7.03
2022-11-12T09:29:09.004Z,7.06
2022-11-12T09:30:11.114Z,7.02
2022-11-12T09:31:12.993Z,7.06
2022-11-12T09:32:14.747Z,7.10
2022-11-12T09:33:20.580Z,7.17
2022-11-12T09:34:22.427Z,7.24
2022-11-12T09:35:24.284Z,7.34
2022-11-12T09:36:26.149Z,7.46
2022-11-12T09:37:27.983Z,7.57
2022-11-12T09:38:30.184Z,7.70
2022-11-12T09:39:32.000Z,7.78
2022-11-12T09:40:36.535Z,7.86
2022-11-12T09:41:40.282Z,7.98
2022-11-12T09:42:44.680Z,8.09
2022-11-12T09:43:49.099Z,8.19
2022-11-12T09:45:06.418Z,8.34
2022-11-12T09:46:43.692Z,8.47
2022-11-12T09:47:46.774Z,8.53
2022-11-12T09:48:52.327Z,8.60
2022-11-12T09:49:54.061Z,8.70
2022-11-12T09:51:06.810Z,8.74
2022-11-12T09:52:21.639Z,8.85
2022-11-12T09:53:30.561Z,8.92
2022-11-12T09:54:33.733Z,8.87
2022-11-12T09:55:40.013Z,8.88
2022-11-12T09:56:41.859Z,8.92
2022-11-12T09:57:43.657Z,8.99
2022-11-12T09:58:45.479Z,9.05
2022-11-12T09:59:47.428Z,9.13
2022-11-12T10:00:56.631Z,9.14
2022-11-12T10:01:58.652Z,9.20
2022-11-12T10:03:12.875Z,9.27
2022-11-12T10:04:33.186Z,9.38
2022-11-12T10:05:42.414Z,9.47
2022-11-12T10:06:55.704Z,9.49
2022-11-12T10:08:16.010Z,9.56
2022-11-12T10:09:20.546Z,9.63
2022-11-12T10:10:34.550Z,9.56
2022-11-12T10:12:09.566Z,9.64
2022-11-12T10:13:18.900Z,9.74
2022-11-12T10:14:20.676Z,9.82
2022-11-12T10:15:47.306Z,9.84
2022-11-12T10:16:49.068Z,9.87
2022-11-12T10:17:55.265Z,9.88
2022-11-12T10:19:19.427Z,9.96
2022-11-12T10:20:25.731Z,10.02
2022-11-12T10:21:35.529Z,10.11
2022-11-12T10:22:40.393Z,10.16
2022-11-12T10:23:50.940Z,10.21
2022-11-12T10:24:52.831Z,10.30
2022-11-12T10:25:58.065Z,10.33
2022-11-12T10:27:00.414Z,10.28
2022-11-12T10:28:08.456Z,10.31
2022-11-12T10:29:13.403Z,10.39
2022-11-12T10:30:17.289Z,10.38
2022-11-12T10:31:20.476Z,10.35
2022-11-12T10:32:22.256Z,10.30
2022-11-12T10:33:24.145Z,10.24
2022-11-12T10:34:26.174Z,10.29
2022-11-12T10:35:27.947Z,10.32
2022-11-12T10:36:34.403Z,10.38
2022-11-12T10:37:36.276Z,10.49
2022-11-12T10:38:38.271Z,10.53
2022-11-12T10:39:41.665Z,10.63
2022-11-12T10:40:43.532Z,10.68
2022-11-12T10:41:45.367Z,10.75
2022-11-12T10:43:00.655Z,10.78
2022-11-12T10:44:03.659Z,10.82
2022-11-12T10:45:31.919Z,10.89
2022-11-12T10:46:35.540Z,10.98
2022-11-12T10:47:39.146Z,11.05
2022-11-12T10:48:40.953Z,11.05
2022-11-12T10:49:42.766Z,11.02
2022-11-12T10:50:44.568Z,11.10
2022-11-12T10:51:56.041Z,11.14
2022-11-12T10:53:01.729Z,11.12
2022-11-12T10:54:20.090Z,11.19
2022-11-12T10:55:27.936Z,11.27
2022-11-12T10:56:31.252Z,11.29
2022-11-12T10:57:33.074Z,11.33
2022-11-12T10:58:34.904Z,11.36
2022-11-12T10:59:36.731Z,11.43
2022-11-12T11:00:51.666Z,11.40
2022-11-12T11:02:01.564Z,11.44
2022-11-12T11:03:07.003Z,11.50
2022-11-12T11:04:23.354Z,11.57
2022-11-12T11:05:29.600Z,11.66
2022-11-12T11:06:31.477Z,11.70
2022-11-12T11:07:33.401Z,11.75
2022-11-12T11:08:45.757Z,11.79
2022-11-12T11:09:55.401Z,11.82
2022-11-12T11:11:15.631Z,11.87
2022-11-12T11:12:28.115Z,11.86
2022-11-12T11:13:29.914Z,11.91
2022-11-12T11:14:33.245Z,11.95
2022-11-12T11:15:35.238Z,12.01
2022-11-12T11:16:49.014Z,12.06
2022-11-12T11:17:51.014Z,12.09
2022-11-12T11:19:00.302Z,12.10
2022-11-12T11:20:02.811Z,12.06
2022-11-12T11:21:04.753Z,12.10
2022-11-12T11:22:06.688Z,12.10
2022-11-12T11:23:17.084Z,12.06
2022-11-12T11:24:24.842Z,12.09
2022-11-12T11:25:28.528Z,12.13
2022-11-12T11:26:38.981Z,12.20
2022-11-12T11:27:40.645Z,12.27
2022-11-12T11:29:09.089Z,12.32
2022-11-12T11:30:13.656Z,12.32
2022-11-12T11:31:33.840Z,12.32
2022-11-12T11:32:54.029Z,12.36
2022-11-12T11:34:11.188Z,12.37
2022-11-12T11:35:19.026Z,12.40
2022-11-12T11:36:20.838Z,12.43
2022-11-12T11:37:26.358Z,12.47
2022-11-12T11:38:31.228Z,12.51
2022-11-12T11:39:33.060Z,12.59
2022-11-12T11:40:47.140Z,12.64
2022-11-12T11:42:04.700Z,12.67
2022-11-12T11:43:18.657Z,12.71
2022-11-12T11:44:36.708Z,12.76
2022-11-12T11:45:44.320Z,12.81
2022-11-12T11:46:55.295Z,12.79
2022-11-12T11:48:05.462Z,12.85
2022-11-12T11:49:25.397Z,12.87
2022-11-12T11:50:39.874Z,12.94
2022-11-12T11:51:44.654Z,13.00
2022-11-12T11:52:50.073Z,12.98
2022-11-12T11:53:51.957Z,12.97
2022-11-12T11:55:29.395Z,13.05
2022-11-12T11:56:37.072Z,13.10
2022-11-12T11:57:44.641Z,13.13
2022-11-12T11:59:01.473Z,13.11
2022-11-12T12:00:14.579Z,13.12
2022-11-12T12:01:22.142Z,13.15
2022-11-12T12:02:39.863Z,13.19
2022-11-12T12:03:41.650Z,13.29
2022-11-12T12:04:48.042Z,13.35
2022-11-12T12:05:58.856Z,13.40
2022-11-12T12:07:00.721Z,13.42
2022-11-12T12:08:08.430Z,13.47
2022-11-12T12:09:12.972Z,13.51
2022-11-12T12:10:22.956Z,13.57
2022-11-12T12:11:47.906Z,13.57
2022-11-12T12:13:00.800Z,13.63
2022-11-12T12:14:21.330Z,13.65
2022-11-12T12:15:26.241Z,13.67
2022-11-12T12:16:43.318Z,13.70
2022-11-12T12:17:59.664Z,13.72
2022-11-12T12:19:19.811Z,13.71
2022-11-12T12:20:25.598Z,13.74
2022-11-12T12:21:32.119Z,13.73
2022-11-12T12:22:38.684Z,13.74
2022-11-12T12:23:49.210Z,13.74
2022-11-12T12:24:55.297Z,13.78
2022-11-12T12:26:00.438Z,13.80
2022-11-12T12:27:08.703Z,13.79
2022-11-12T12:28:17.854Z,13.79
2022-11-12T12:29:19.645Z,13.80
2022-11-12T12:30:22.716Z,13.84
2022-11-12T12:31:28.542Z,13.88
2022-11-12T12:32:37.954Z,13.88
2022-11-12T12:33:48.775Z,13.86
2022-11-12T12:34:56.672Z,13.89
2022-11-12T12:36:00.561Z,13.89
2022-11-12T12:37:05.461Z,13.87
2022-11-12T12:38:21.953Z,13.85
2022-11-12T12:39:29.538Z,13.90
2022-11-12T12:40:36.056Z,13.96
2022-11-12T12:41:37.830Z,14.00
2022-11-12T12:42:45.555Z,14.03
2022-11-12T12:43:51.526Z,14.08
2022-11-12T12:45:02.328Z,14.11
2022-11-12T12:46:05.480Z,14.16
2022-11-12T12:47:11.390Z,14.17
2022-11-12T12:48:16.239Z,14.14
2022-11-12T12:49:20.576Z,14.15
2022-11-12T12:50:23.507Z,14.14
2022-11-12T12:51:28.563Z,14.15
2022-11-12T12:52:30.355Z,14.18
2022-11-12T12:53:34.063Z,14.23
2022-11-12T12:54:35.837Z,14.23
2022-11-12T12:55:43.061Z,14.22
2022-11-12T12:56:46.330Z,14.16
2022-11-12T12:57:48.161Z,14.12
2022-11-12T12:58:51.217Z,14.07
2022-11-12T13:00:31.588Z,14.00
2022-11-12T13:01:36.586Z,13.94
2022-11-12T13:02:39.190Z,13.92
2022-11-12T13:03:44.276Z,13.89
2022-11-12T13:04:57.235Z,13.88
2022-11-12T13:06:09.159Z,13.84
2022-11-12T13:07:11.305Z,13.78
2022-11-12T13:08:19.938Z,13.74
2022-11-12T13:09:27.379Z,13.65
2022-11-12T13:10:54.052Z,13.62
2022-11-12T13:12:05.047Z,13.59
2022-11-12T13:13:18.912Z,13.65
2022-11-12T13:14:35.893Z,13.67
2022-11-12T13:15:43.923Z,13.69
2022-11-12T13:16:51.996Z,13.74
2022-11-12T13:17:54.065Z,13.78
2022-11-12T13:18:55.896Z,13.83
2022-11-12T13:19:57.747Z,13.87
2022-11-12T13:21:14.228Z,13.87
2022-11-12T13:22:19.049Z,13.89
2022-11-12T13:24:08.052Z,13.88
2022-11-12T13:25:12.998Z,13.91
2022-11-12T13:26:42.428Z,13.88
2022-11-12T13:27:44.627Z,13.88
2022-11-12T13:29:23.862Z,13.91
2022-11-12T13:30:25.743Z,13.97
2022-11-12T13:31:29.705Z,14.05
2022-11-12T13:32:55.004Z,14.10
2022-11-12T13:34:11.950Z,14.14
2022-11-12T13:35:22.779Z,14.18
2022-11-12T13:36:28.711Z,14.25
2022-11-12T13:37:30.749Z,14.28
2022-11-12T13:38:38.728Z,14.30
2022-11-12T13:39:41.446Z,14.30
2022-11-12T13:40:52.364Z,14.32
2022-11-12T13:42:19.545Z,14.33
2022-11-12T13:43:37.879Z,14.34
2022-11-12T13:44:39.848Z,14.24
2022-11-12T13:45:56.197Z,14.08
2022-11-12T13:46:58.255Z,13.97
2022-11-12T13:48:00.342Z,13.88
2022-11-12T13:49:09.569Z,13.82
2022-11-12T13:50:18.535Z,13.78
2022-11-12T13:51:24.254Z,13.71
2022-11-12T13:52:27.271Z,13.64
2022-11-12T13:53:32.308Z,13.56
2022-11-12T13:54:37.262Z,13.51
2022-11-12T13:55:48.668Z,13.46
2022-11-12T13:56:50.698Z,13.42
2022-11-12T13:57:54.575Z,13.34
2022-11-12T13:59:13.584Z,13.30
2022-11-12T14:00:18.364Z,13.25
2022-11-12T14:01:23.007Z,13.24
2022-11-12T14:02:27.117Z,13.21
2022-11-12T14:03:42.531Z,13.17
2022-11-12T14:04:44.694Z,13.15
2022-11-12T14:05:49.921Z,13.09
2022-11-12T14:06:57.659Z,13.04
2022-11-12T14:08:08.953Z,12.98
2022-11-12T14:09:31.083Z,12.95
2022-11-12T14:10:33.039Z,12.91
2022-11-12T14:11:34.991Z,12.84
2022-11-12T14:12:51.661Z,12.76
2022-11-12T14:14:05.416Z,12.64
2022-11-12T14:15:28.903Z,12.57
2022-11-12T14:17:02.901Z,12.52